createdAt,value
2022-09-29T00:00:27.107Z,6.17
2022-09-29T00:02:54.320Z,6.15
2022-09-29T00:05:22.167Z,6.23
2022-09-29T00:07:49.081Z,6.25
2022-09-29T00:10:15.976Z,6.35
2022-09-29T00:12:42.800Z,6.35
2022-09-29T00:15:10.010Z,6.42
2022-09-29T00:17:36.810Z,6.40
2022-09-29T00:20:04.553Z,6.44
2022-09-29T00:22:31.502Z,6.37
2022-09-29T00:24:58.341Z,6.33
2022-09-29T00:27:25.389Z,6.32
2022-09-29T00:29:52.304Z,6.26
2022-09-29T00:32:20.133Z,6.25
2022-09-29T00:34:46.999Z,6.20
2022-09-29T00:37:14.361Z,6.16
2022-09-29T00:39:41.204Z,6.19
2022-09-29T00:42:12.128Z,6.19
2022-09-29T00:45:01.737Z,6.16
2022-09-29T00:47:31.971Z,6.03
2022-09-29T00:50:05.065Z,6.00
2022-09-29T00:52:43.205Z,5.97
2022-09-29T00:55:18.985Z,5.94
2022-09-29T00:58:31.116Z,5.96
2022-09-29T01:00:58.141Z,5.92
2022-09-29T01:03:32.962Z,5.87
2022-09-29T01:06:14.225Z,5.80
2022-09-29T01:08:52.223Z,5.64
2022-09-29T01:11:22.067Z,5.57
2022-09-29T01:13:49.793Z,5.50
2022-09-29T01:16:16.949Z,5.35
2022-09-29T01:18:46.366Z,5.17
2022-09-29T01:21:39.844Z,5.19
2022-09-29T01:24:36.055Z,5.09
2022-09-29T01:27:41.319Z,4.98
2022-09-29T01:31:02.677Z,4.77
2022-09-29T01:34:06.193Z,4.81
2022-09-29T01:36:56.036Z,4.86
2022-09-29T01:39:30.193Z,4.88
2022-09-29T01:42:03.498Z,4.93
2022-09-29T01:44:51.846Z,5.01
2022-09-29T01:47:24.565Z,5.15
2022-09-29T01:49:58.278Z,5.32
2022-09-29T01:52:30.636Z,5.43
2022-09-29T01:55:02.165Z,5.44
2022-09-29T01:57:39.461Z,5.50
2022-09-29T02:00:11.313Z,5.88
2022-09-29T02:02:49.900Z,6.00
2022-09-29T02:05:25.781Z,6.09
2022-09-29T02:07:55.512Z,6.17
2022-09-29T02:10:28.777Z,6.11
2022-09-29T02:12:58.055Z,6.01
2022-09-29T02:15:30.773Z,5.94
2022-09-29T02:18:02.932Z,6.00
2022-09-29T02:20:31.061Z,5.92
2022-09-29T02:22:57.989Z,5.74
2022-09-29T02:25:25.151Z,5.67
2022-09-29T02:27:52.162Z,5.67
2022-09-29T02:30:19.016Z,5.72
2022-09-29T02:32:47.699Z,5.70
2022-09-29T02:35:15.455Z,5.73
2022-09-29T02:38:11.192Z,5.76
2022-09-29T02:41:06.584Z,5.75
2022-09-29T02:43:47.275Z,5.65
2022-09-29T02:47:01.449Z,5.42
2022-09-29T02:49:50.696Z,5.29
2022-09-29T02:52:39.229Z,5.33
2022-09-29T02:55:32.424Z,5.54
2022-09-29T02:58:07.737Z,5.56
2022-09-29T03:00:34.995Z,5.56
2022-09-29T03:03:01.860Z,5.65
2022-09-29T03:05:29.048Z,5.72
2022-09-29T03:07:55.843Z,5.64
2022-09-29T03:10:25.790Z,5.54
2022-09-29T03:12:54.791Z,5.45
2022-09-29T03:15:21.916Z,5.31
2022-09-29T03:17:48.961Z,5.13
2022-09-29T03:20:15.967Z,5.09
2022-09-29T03:22:42.981Z,5.20
2022-09-29T03:25:09.902Z,5.52
2022-09-29T03:27:38.399Z,5.69
2022-09-29T03:30:05.715Z,5.74
2022-09-29T03:32:32.487Z,5.80
2022-09-29T03:34:59.504Z,5.75
2022-09-29T03:37:26.215Z,5.65
2022-09-29T03:39:53.019Z,5.73
2022-09-29T03:42:22.776Z,5.62
2022-09-29T03:44:49.976Z,5.57
2022-09-29T03:47:16.716Z,5.55
2022-09-29T03:49:43.463Z,5.49
2022-09-29T03:52:10.631Z,5.50
2022-09-29T03:54:37.453Z,5.47
2022-09-29T03:57:04.337Z,5.41
2022-09-29T03:59:31.168Z,5.49
2022-09-29T04:01:57.990Z,5.48
2022-09-29T04:04:24.993Z,5.47
2022-09-29T04:06:51.819Z,5.51
2022-09-29T04:09:18.823Z,5.51
2022-09-29T04:11:45.618Z,5.54
2022-09-29T04:14:13.623Z,5.51
2022-09-29T04:16:40.448Z,5.46
2022-09-29T04:19:07.277Z,5.40
2022-09-29T04:21:34.027Z,5.34
2022-09-29T04:24:01.005Z,5.28
2022-09-29T04:26:27.847Z,5.24
2022-09-29T04:28:55.833Z,5.19
2022-09-29T04:31:22.676Z,5.14
2022-09-29T04:33:49.600Z,5.07
2022-09-29T04:36:16.453Z,4.94
2022-09-29T04:38:43.222Z,4.93
2022-09-29T04:41:10.066Z,4.78
2022-09-29T04:43:36.812Z,4.65
2022-09-29T04:46:08.411Z,4.55
2022-09-29T04:48:36.418Z,4.43
2022-09-29T04:51:04.480Z,4.36
2022-09-29T04:53:31.580Z,4.34
2022-09-29T04:55:58.348Z,4.32
2022-09-29T04:58:25.252Z,4.33
2022-09-29T05:00:52.085Z,4.30
2022-09-29T05:03:18.907Z,4.40
2022-09-29T05:05:45.712Z,4.47
2022-09-29T05:08:12.913Z,4.43
2022-09-29T05:10:39.821Z,4.38
2022-09-29T05:13:06.581Z,4.32
2022-09-29T05:15:33.384Z,4.33
2022-09-29T05:18:03.501Z,4.41
2022-09-29T05:20:38.255Z,4.47
2022-09-29T05:23:10.285Z,4.53
2022-09-29T05:25:37.876Z,4.46
2022-09-29T05:28:04.630Z,4.40
2022-09-29T05:30:31.380Z,4.48
2022-09-29T05:32:59.125Z,4.47
2022-09-29T05:35:26.173Z,4.46
2022-09-29T05:37:53.195Z,4.39
2022-09-29T05:40:20.702Z,4.35
2022-09-29T05:42:47.519Z,4.39
2022-09-29T05:45:14.497Z,4.55
2022-09-29T05:47:43.416Z,4.68
2022-09-29T05:50:12.014Z,4.77
2022-09-29T05:52:39.865Z,4.75
2022-09-29T05:55:09.702Z,4.74
2022-09-29T05:57:36.763Z,4.66
2022-09-29T06:00:04.797Z,4.63
2022-09-29T06:02:38.338Z,4.70
2022-09-29T06:05:05.980Z,4.77
2022-09-29T06:07:32.950Z,4.88
2022-09-29T06:09:59.682Z,4.86
2022-09-29T06:12:27.017Z,4.86
2022-09-29T06:14:53.780Z,4.95
2022-09-29T06:17:20.542Z,4.98
2022-09-29T06:19:47.403Z,5.04
2022-09-29T06:22:14.239Z,5.08
2022-09-29T06:24:40.956Z,5.13
2022-09-29T06:27:07.806Z,5.14
2022-09-29T06:29:34.645Z,5.20
2022-09-29T06:32:02.713Z,5.24
2022-09-29T06:34:29.487Z,5.41
2022-09-29T06:37:14.836Z,5.46
2022-09-29T06:39:41.661Z,5.55
2022-09-29T06:42:08.438Z,5.71
2022-09-29T06:44:35.691Z,5.97
2022-09-29T06:47:02.478Z,6.36
2022-09-29T06:49:29.230Z,6.65
2022-09-29T06:51:55.977Z,6.98
2022-09-29T06:54:26.770Z,7.25
2022-09-29T06:56:54.429Z,7.34
2022-09-29T06:59:21.559Z,7.40
2022-09-29T07:01:50.820Z,7.42
2022-09-29T07:04:20.199Z,7.50
2022-09-29T07:06:47.245Z,7.60
2022-09-29T07:09:17.533Z,7.59
2022-09-29T07:11:46.787Z,7.66
2022-09-29T07:14:14.857Z,7.71
2022-09-29T07:16:42.053Z,7.85
2022-09-29T07:19:10.090Z,8.16
2022-09-29T07:21:36.984Z,8.53
2022-09-29T07:24:04.054Z,8.85
2022-09-29T07:26:30.865Z,9.16
2022-09-29T07:28:57.765Z,9.59
2022-09-29T07:31:24.776Z,9.87
2022-09-29T07:33:52.966Z,10.09
2022-09-29T07:36:21.249Z,10.29
2022-09-29T07:38:50.020Z,10.43
2022-09-29T07:41:18.709Z,10.61
2022-09-29T07:43:45.635Z,10.79
2022-09-29T07:46:12.756Z,11.02
2022-09-29T07:48:40.039Z,10.98
2022-09-29T07:51:13.915Z,10.87
2022-09-29T07:53:41.645Z,11.08
2022-09-29T07:56:11.258Z,11.14
2022-09-29T07:58:39.028Z,11.19
2022-09-29T08:01:10.630Z,11.21
2022-09-29T08:03:39.292Z,11.27
2022-09-29T08:06:11.332Z,11.21
2022-09-29T08:08:39.900Z,11.39
2022-09-29T08:11:11.066Z,11.52
2022-09-29T08:13:41.263Z,11.59
2022-09-29T08:16:11.599Z,12.06
2022-09-29T08:18:39.001Z,12.68
2022-09-29T08:21:06.723Z,12.36
2022-09-29T08:23:38.337Z,12.10
2022-09-29T08:26:08.043Z,11.92
2022-09-29T08:28:36.769Z,12.44
2022-09-29T08:31:06.184Z,12.26
2022-09-29T08:33:33.415Z,12.19
2022-09-29T08:36:00.621Z,12.20
2022-09-29T08:38:27.902Z,12.14
2022-09-29T08:40:56.702Z,12.12
2022-09-29T08:43:40.344Z,12.47
2022-09-29T08:46:35.403Z,12.81
2022-09-29T08:49:09.775Z,12.78
2022-09-29T08:51:43.156Z,13.37
2022-09-29T08:54:39.137Z,13.94
2022-09-29T08:57:09.168Z,14.99
2022-09-29T08:59:37.367Z,15.18
2022-09-29T09:02:43.195Z,16.19
2022-09-29T09:05:25.301Z,17.46
2022-09-29T09:08:00.469Z,18.04
2022-09-29T09:11:09.098Z,18.83
2022-09-29T09:13:57.617Z,19.06
2022-09-29T09:16:38.293Z,18.89
2022-09-29T09:19:33.180Z,19.50
2022-09-29T09:22:19.341Z,19.78
2022-09-29T09:24:57.114Z,20.09
2022-09-29T09:27:36.779Z,20.85
2022-09-29T09:30:18.274Z,21.44
2022-09-29T09:32:52.807Z,21.66
2022-09-29T09:35:58.134Z,21.77
2022-09-29T09:38:34.082Z,22.03
2022-09-29T09:41:02.162Z,22.53
2022-09-29T09:43:39.793Z,22.84
2022-09-29T09:46:34.473Z,23.33
2022-09-29T09:49:24.768Z,23.80
2022-09-29T09:51:58.375Z,23.91
2022-09-29T09:54:33.354Z,23.88
2022-09-29T09:57:09.087Z,23.66
2022-09-29T09:59:56.680Z,23.47
2022-09-29T10:02:24.684Z,23.18
2022-09-29T10:04:53.828Z,23.55
2022-09-29T10:07:22.925Z,23.33
2022-09-29T10:09:50.432Z,23.12
2022-09-29T10:12:24.635Z,22.74
2022-09-29T10:15:05.440Z,23.42
2022-09-29T10:17:40.013Z,23.24
2022-09-29T10:20:08.616Z,23.75
2022-09-29T10:22:36.424Z,23.43
2022-09-29T10:25:12.391Z,24.19
2022-09-29T10:27:55.764Z,24.59
2022-09-29T10:30:32.592Z,25.22
2022-09-29T10:33:02.809Z,25.29
2022-09-29T10:35:37.110Z,25.72
2022-09-29T10:38:25.610Z,26.08
2022-09-29T10:41:04.931Z,26.08
2022-09-29T10:43:34.771Z,26.44
2022-09-29T10:46:01.713Z,26.58
2022-09-29T10:48:28.676Z,26.21
2022-09-29T10:51:04.130Z,25.20
2022-09-29T10:53:43.630Z,23.77
2022-09-29T10:56:18.921Z,23.00
2022-09-29T10:59:01.460Z,23.89
2022-09-29T11:01:35.712Z,24.36
2022-09-29T11:04:36.433Z,23.41
2022-09-29T11:07:12.903Z,23.49
2022-09-29T11:09:42.031Z,24.30
2022-09-29T11:12:29.258Z,25.64
2022-09-29T11:14:56.135Z,23.85
2022-09-29T11:17:38.256Z,22.93
2022-09-29T11:20:11.564Z,22.93
2022-09-29T11:22:50.749Z,23.73
2022-09-29T11:25:26.437Z,23.61
2022-09-29T11:28:13.402Z,23.23
2022-09-29T11:31:00.257Z,22.23
2022-09-29T11:33:46.898Z,21.06
2022-09-29T11:36:23.639Z,21.95
2022-09-29T11:39:15.367Z,23.31
2022-09-29T11:41:42.169Z,24.42
2022-09-29T11:44:27.341Z,24.27
2022-09-29T11:47:17.311Z,22.70
2022-09-29T11:49:56.542Z,21.37
2022-09-29T11:52:49.846Z,20.91
2022-09-29T11:55:33.324Z,21.47
2022-09-29T11:58:20.418Z,23.64
2022-09-29T12:01:05.953Z,23.28
2022-09-29T12:03:52.794Z,21.03
2022-09-29T12:06:34.016Z,19.55
2022-09-29T12:09:20.359Z,18.62
2022-09-29T12:12:18.909Z,17.86
2022-09-29T12:15:00.913Z,17.51
2022-09-29T12:17:33.226Z,17.28
2022-09-29T12:20:24.668Z,17.32
2022-09-29T12:22:54.606Z,17.17
2022-09-29T12:25:26.057Z,17.71
2022-09-29T12:28:02.885Z,20.39
2022-09-29T12:30:37.969Z,22.30
2022-09-29T12:33:09.015Z,21.24
2022-09-29T12:35:45.829Z,20.88
2022-09-29T12:38:20.627Z,19.70
2022-09-29T12:41:23.732Z,19.08
2022-09-29T12:43:56.710Z,18.65
2022-09-29T12:46:41.480Z,20.50
2022-09-29T12:49:13.236Z,20.07
2022-09-29T12:51:44.342Z,19.78
2022-09-29T12:54:23.415Z,20.73
2022-09-29T12:56:58.764Z,20.24
2022-09-29T12:59:49.181Z,21.61
2022-09-29T13:02:31.352Z,21.98
2022-09-29T13:05:20.124Z,23.41
2022-09-29T13:08:19.051Z,23.93
2022-09-29T13:10:55.147Z,23.40
2022-09-29T13:14:11.806Z,23.66
2022-09-29T13:17:06.193Z,23.55
2022-09-29T13:20:00.524Z,24.07
2022-09-29T13:22:53.370Z,24.40
2022-09-29T13:25:51.146Z,24.57
2022-09-29T13:28:31.832Z,25.29
2022-09-29T13:31:06.403Z,25.97
2022-09-29T13:33:34.460Z,25.88
2022-09-29T13:36:02.245Z,26.27
2022-09-29T13:38:36.902Z,25.71
2022-09-29T13:41:15.384Z,23.23
2022-09-29T13:43:51.099Z,21.50
2022-09-29T13:46:30.160Z,20.11
2022-09-29T13:49:22.743Z,20.69
2022-09-29T13:51:54.961Z,20.18
2022-09-29T13:54:30.772Z,20.36
2022-09-29T13:57:26.651Z,22.20
2022-09-29T13:59:57.148Z,23.71
2022-09-29T14:02:33.257Z,22.69
2022-09-29T14:05:00.670Z,22.35
2022-09-29T14:07:49.458Z,19.71
2022-09-29T14:10:37.974Z,19.19
2022-09-29T14:13:16.565Z,18.78
2022-09-29T14:16:01.094Z,18.81
2022-09-29T14:18:37.108Z,18.06
2022-09-29T14:21:11.884Z,18.23
2022-09-29T14:23:44.997Z,17.81
2022-09-29T14:26:48.889Z,18.20
2022-09-29T14:29:28.668Z,18.08
2022-09-29T14:32:01.620Z,18.05
2022-09-29T14:34:33.054Z,18.05
2022-09-29T14:37:01.147Z,18.10
2022-09-29T14:39:28.257Z,17.62
2022-09-29T14:41:56.615Z,17.11
2022-09-29T14:44:49.036Z,16.71
2022-09-29T14:50:50.272Z,15.97
2022-09-29T14:53:43.751Z,15.79
2022-09-29T14:56:28.722Z,15.63
2022-09-29T14:59:40.355Z,15.53
2022-09-29T15:02:27.635Z,15.50
2022-09-29T15:04:55.412Z,15.52
2022-09-29T15:07:25.616Z,15.32
2022-09-29T15:09:58.877Z,15.13
2022-09-29T15:12:29.290Z,15.09
2022-09-29T15:14:58.129Z,14.93
2022-09-29T15:17:38.141Z,14.59
2022-09-29T15:20:23.792Z,14.12
2022-09-29T15:23:09.199Z,13.53
2022-09-29T15:25:40.792Z,13.27
2022-09-29T15:28:38.765Z,13.02
2022-09-29T15:31:08.998Z,12.65
2022-09-29T15:33:37.767Z,12.59
2022-09-29T15:36:18.857Z,12.35
2022-09-29T15:38:45.645Z,12.27
2022-09-29T15:41:13.140Z,12.28
2022-09-29T15:43:54.259Z,12.11
2022-09-29T15:46:24.012Z,12.07
2022-09-29T15:49:14.716Z,12.07
2022-09-29T15:51:44.255Z,12.12
2022-09-29T15:54:14.454Z,12.19
2022-09-29T15:57:00.195Z,12.03
2022-09-29T16:00:05.123Z,12.04
2022-09-29T16:02:42.758Z,11.94
2022-09-29T16:05:17.312Z,11.97
2022-09-29T16:07:52.937Z,12.03
2022-09-29T16:10:22.641Z,12.09
2022-09-29T16:12:49.439Z,12.15
2022-09-29T16:15:28.768Z,12.21
2022-09-29T16:17:56.550Z,12.22
2022-09-29T16:20:28.025Z,12.27
2022-09-29T16:22:55.934Z,12.30
2022-09-29T16:25:28.135Z,12.31
2022-09-29T16:27:57.353Z,12.25
2022-09-29T16:30:35.921Z,12.13
2022-09-29T16:33:14.720Z,12.07
2022-09-29T16:35:45.126Z,11.93
2022-09-29T16:38:38.113Z,11.91
2022-09-29T16:41:16.245Z,11.89
2022-09-29T16:43:45.119Z,11.87
2022-09-29T16:46:18.712Z,11.87
2022-09-29T16:48:48.209Z,11.84
2022-09-29T16:51:38.497Z,11.75
2022-09-29T16:54:06.293Z,11.66
2022-09-29T16:56:35.445Z,11.53
2022-09-29T16:59:17.530Z,11.42
2022-09-29T17:01:48.639Z,11.38
2022-09-29T17:04:15.705Z,11.38
2022-09-29T17:06:47.568Z,11.39
2022-09-29T17:09:21.163Z,11.35
2022-09-29T17:11:49.380Z,11.37
2022-09-29T17:14:18.434Z,11.42
2022-09-29T17:16:45.849Z,11.46
2022-09-29T17:19:12.668Z,11.49
2022-09-29T17:21:39.457Z,11.50
2022-09-29T17:24:06.264Z,11.48
2022-09-29T17:27:04.164Z,11.48
2022-09-29T17:29:31.626Z,11.40
2022-09-29T17:31:58.636Z,11.33
2022-09-29T17:34:29.022Z,11.24
2022-09-29T17:37:01.956Z,11.10
2022-09-29T17:39:31.465Z,10.99
2022-09-29T17:41:59.293Z,10.96
2022-09-29T17:44:27.884Z,10.90
2022-09-29T17:47:05.516Z,10.79
2022-09-29T17:49:43.963Z,10.67
2022-09-29T17:52:15.173Z,10.62
2022-09-29T17:54:42.453Z,10.60
2022-09-29T17:57:20.114Z,10.56
2022-09-29T17:59:47.220Z,10.54
2022-09-29T18:02:14.209Z,10.49
2022-09-29T18:04:45.399Z,10.40
2022-09-29T18:07:12.574Z,10.34
2022-09-29T18:09:43.371Z,10.25
2022-09-29T18:12:10.734Z,10.18
2022-09-29T18:14:37.506Z,10.15
2022-09-29T18:17:05.777Z,10.16
2022-09-29T18:19:38.391Z,10.19
2022-09-29T18:22:06.473Z,10.22
2022-09-29T18:24:34.105Z,10.24
2022-09-29T18:27:01.234Z,10.30
2022-09-29T18:29:31.718Z,10.37
2022-09-29T18:31:59.681Z,10.42
2022-09-29T18:34:26.899Z,10.45
2022-09-29T18:36:53.771Z,10.48
2022-09-29T18:39:20.811Z,10.47
2022-09-29T18:41:47.665Z,10.48
2022-09-29T18:44:17.657Z,10.46
2022-09-29T18:46:44.747Z,10.44
2022-09-29T18:49:15.358Z,10.42
2022-09-29T18:51:42.160Z,10.40
2022-09-29T18:54:08.986Z,10.38
2022-09-29T18:56:35.958Z,10.34
2022-09-29T18:59:05.627Z,10.29
2022-09-29T19:01:32.628Z,10.25
2022-09-29T19:03:59.560Z,10.23
2022-09-29T19:06:26.500Z,10.16
2022-09-29T19:08:53.318Z,10.09
2022-09-29T19:11:23.288Z,10.11
2022-09-29T19:13:52.520Z,10.14
2022-09-29T19:16:19.347Z,10.15
2022-09-29T19:18:46.708Z,10.13
2022-09-29T19:21:14.817Z,10.18
2022-09-29T19:23:43.243Z,10.19
2022-09-29T19:26:12.829Z,10.20
2022-09-29T19:28:40.330Z,10.13
2022-09-29T19:31:11.159Z,10.03
2022-09-29T19:33:39.100Z,9.92
2022-09-29T19:36:10.355Z,9.85
2022-09-29T19:38:38.623Z,9.74
2022-09-29T19:41:12.335Z,9.68
2022-09-29T19:43:39.158Z,9.61
2022-09-29T19:46:08.090Z,9.54
2022-09-29T19:48:34.897Z,9.48
2022-09-29T19:51:20.211Z,9.42
2022-09-29T19:53:48.977Z,9.38
2022-09-29T19:56:17.623Z,9.33
2022-09-29T19:58:44.541Z,9.26
2022-09-29T20:01:12.206Z,9.20
2022-09-29T20:03:39.498Z,9.14
2022-09-29T20:06:06.964Z,9.11
2022-09-29T20:08:34.179Z,9.08
2022-09-29T20:11:10.261Z,9.04
2022-09-29T20:13:37.461Z,9.06
2022-09-29T20:16:05.975Z,9.03
2022-09-29T20:18:36.717Z,8.93
2022-09-29T20:21:07.873Z,8.88
2022-09-29T20:23:34.697Z,8.83
2022-09-29T20:26:02.178Z,8.81
2022-09-29T20:28:31.244Z,8.81
2022-09-29T20:30:58.794Z,8.80
2022-09-29T20:33:26.790Z,8.81
2022-09-29T20:35:53.730Z,8.85
2022-09-29T20:38:20.590Z,8.81
2022-09-29T20:40:49.134Z,8.79
2022-09-29T20:43:16.181Z,8.78
2022-09-29T20:45:43.338Z,8.75
2022-09-29T20:48:12.918Z,8.71
2022-09-29T20:50:39.726Z,8.71
2022-09-29T20:53:06.530Z,8.70
2022-09-29T20:55:34.822Z,8.69
2022-09-29T20:58:03.750Z,8.69
2022-09-29T21:00:30.541Z,8.72
2022-09-29T21:02:58.057Z,8.78
2022-09-29T21:05:25.002Z,8.80
2022-09-29T21:07:51.767Z,8.82
2022-09-29T21:10:18.618Z,8.82
2022-09-29T21:12:45.787Z,8.88
2022-09-29T21:15:12.699Z,8.74
2022-09-29T21:17:39.546Z,8.78
2022-09-29T21:20:06.868Z,8.79
2022-09-29T21:22:33.655Z,8.79
2022-09-29T21:25:00.423Z,8.86
2022-09-29T21:27:29.043Z,8.97
2022-09-29T21:29:55.816Z,9.12
2022-09-29T21:32:23.022Z,9.19
2022-09-29T21:34:49.782Z,9.23
2022-09-29T21:37:17.266Z,9.21
2022-09-29T21:39:44.066Z,9.18
2022-09-29T21:42:11.234Z,9.18
2022-09-29T21:44:38.076Z,9.13
2022-09-29T21:47:04.907Z,9.13
2022-09-29T21:49:31.643Z,9.11
2022-09-29T21:52:01.809Z,9.01
2022-09-29T21:54:30.333Z,8.94
2022-09-29T21:56:57.195Z,8.82
2022-09-29T21:59:24.572Z,8.71
2022-09-29T22:01:52.470Z,8.64
2022-09-29T22:04:20.490Z,8.57
2022-09-29T22:06:47.477Z,8.61
2022-09-29T22:09:18.301Z,8.66
2022-09-29T22:11:45.939Z,8.78
2022-09-29T22:14:14.128Z,8.85
2022-09-29T22:16:40.885Z,8.96
2022-09-29T22:19:24.676Z,9.16
2022-09-29T22:21:53.776Z,9.33
2022-09-29T22:24:21.094Z,9.35
2022-09-29T22:27:07.990Z,9.38
2022-09-29T22:29:34.751Z,9.38
2022-09-29T22:32:01.723Z,9.42
2022-09-29T22:34:28.744Z,9.42
2022-09-29T22:36:55.483Z,9.39
2022-09-29T22:39:22.216Z,9.39
2022-09-29T22:41:51.081Z,9.39
2022-09-29T22:44:18.450Z,9.43
2022-09-29T22:46:45.294Z,9.45
2022-09-29T22:49:12.079Z,9.58
2022-09-29T22:51:39.124Z,9.68
2022-09-29T22:54:05.913Z,9.69
2022-09-29T22:56:32.611Z,9.73
2022-09-29T22:59:04.570Z,9.80
2022-09-29T23:01:33.378Z,9.98
2022-09-29T23:04:00.570Z,10.05
2022-09-29T23:06:27.358Z,10.13
2022-09-29T23:08:55.589Z,10.18
2022-09-29T23:11:23.538Z,10.22
2022-09-29T23:13:51.211Z,10.27
2022-09-29T23:16:18.461Z,10.28
2022-09-29T23:18:46.544Z,10.29
2022-09-29T23:21:15.395Z,10.35
2022-09-29T23:23:42.241Z,10.12
2022-09-29T23:26:09.076Z,10.15
2022-09-29T23:28:36.077Z,10.20
2022-09-29T23:31:07.394Z,10.21
2022-09-29T23:33:34.829Z,10.21
2022-09-29T23:36:09.884Z,10.24
2022-09-29T23:38:57.072Z,10.27
2022-09-29T23:41:27.103Z,10.24
2022-09-29T23:43:55.726Z,10.16
2022-09-29T23:46:23.766Z,10.19
2022-09-29T23:48:50.864Z,10.17
2022-09-29T23:51:18.859Z,9.96
2022-09-29T23:53:45.890Z,9.75
2022-09-29T23:56:12.720Z,9.59
2022-09-29T23:58:39.549Z,9.46
